Grass Valley, Oregon
Current Conditions -  °F | °C
As of 4:53 AM on Tuesday 21 Oct 2014 (Local Time) from KDLS Reporting Station
Clear Clear  
Wind Chill: 44°   Ceiling: Unl
Heat Index: 48°   Visibility: 10mi
Dew Point: 46°   Wind: 8mph
Humidity: 93%   Direction: 120°ESE
Pressure: 29.9"   Gusts: NA
Location:  45.36°N, 120.79°W
Report Text: KDLS 211153Z AUTO 12007KT 10SM CLR 09/08 A2990 RMK AO2 SLP125 70013 T00890078 10111 20078 53008
Loading
Personal Weather Stations






























Interactive Weather Map New forecast layout! Learn more

10-Day Weather Forecast

Advertisements
Track Severe Weather on mobile